Time;durP1;ratioP1;P1;durP2;ratioP2;P2;SDS_P1;SDS_P2;PMS_P1;PMS_P2;Temp;Humidity;BMP_temperature;BMP_pressure;BME280_temperature;BME280_humidity;BME280_pressure;Samples;Min_cycle;Max_cycle;Signal;HPM_P1;HPM_P2
2024/01/14 00:01:53;;;;;;;5.33;1.57;;;3.00;99.90;;;;;;5039151;28;20051;-65
2024/01/14 00:04:19;;;;;;;15.45;2.22;;;3.00;99.90;;;;;;5034674;28;20518;-65
2024/01/14 00:06:45;;;;;;;18.97;1.73;;;2.90;99.90;;;;;;5039331;28;20091;-65
2024/01/14 00:09:11;;;;;;;11.00;2.30;;;2.90;99.90;;;;;;5039241;28;20417;-65
2024/01/14 00:11:37;;;;;;;20.45;2.05;;;3.00;99.90;;;;;;5041924;28;20033;-65
2024/01/14 00:14:03;;;;;;;16.37;2.30;;;3.10;99.90;;;;;;5041077;28;20425;-66
2024/01/14 00:16:34;;;;;;;12.50;1.80;;;3.20;99.90;;;;;;5043916;28;20033;-65
2024/01/14 00:19:00;;;;;;;12.77;1.45;;;3.30;99.90;;;;;;5041425;28;20513;-65
2024/01/14 00:21:26;;;;;;;;;;;3.40;99.90;;;;;;5057348;28;20132;-67
2024/01/14 00:23:51;;;;;;;8.32;1.25;;;3.40;99.90;;;;;;5045344;28;20464;-65
2024/01/14 00:26:17;;;;;;;8.97;1.33;;;3.40;99.90;;;;;;5042495;28;20506;-66
2024/01/14 00:28:43;;;;;;;9.73;2.10;;;3.30;99.90;;;;;;5043000;28;20033;-65
2024/01/14 00:31:08;;;;;;;10.83;1.87;;;3.30;99.90;;;;;;5040128;28;20048;-65
2024/01/14 00:33:34;;;;;;;19.00;1.97;;;3.30;99.90;;;;;;5044036;28;20501;-65
2024/01/14 00:36:03;;;;;;;20.90;3.93;;;3.30;99.90;;;;;;5040790;28;20044;-65
2024/01/14 00:38:29;;;;;;;14.38;1.55;;;3.20;99.90;;;;;;5042821;28;20116;-65
2024/01/14 00:40:54;;;;;;;6.87;1.47;;;3.20;99.90;;;;;;5043412;28;20565;-65
2024/01/14 00:43:20;;;;;;;15.47;2.20;;;3.20;99.90;;;;;;5044535;28;20397;-66
2024/01/14 00:45:46;;;;;;;12.57;1.47;;;3.20;99.90;;;;;;5042652;28;20128;-65
2024/01/14 00:48:11;;;;;;;10.60;1.88;;;3.20;99.90;;;;;;5039480;28;20117;-65
2024/01/14 00:50:37;;;;;;;15.47;2.73;;;3.20;99.90;;;;;;5039928;28;20076;-65
2024/01/14 00:53:03;;;;;;;16.93;1.90;;;3.20;99.90;;;;;;5042159;28;20052;-65
2024/01/14 00:55:28;;;;;;;10.88;1.48;;;3.20;99.90;;;;;;5044541;28;20461;-66
2024/01/14 00:57:54;;;;;;;8.47;1.87;;;3.10;99.90;;;;;;5044610;28;20029;-65
2024/01/14 01:00:19;;;;;;;13.43;2.23;;;3.10;99.90;;;;;;5034645;28;20063;-64
2024/01/14 01:02:45;;;;;;;13.33;1.20;;;3.20;99.90;;;;;;5042922;28;20055;-64
2024/01/14 01:05:11;;;;;;;11.57;1.10;;;3.20;99.90;;;;;;5039075;28;20040;-64
2024/01/14 01:07:36;;;;;;;10.17;1.63;;;3.30;99.90;;;;;;5042801;28;20033;-64
2024/01/14 01:10:03;;;;;;;8.00;0.80;;;3.30;99.90;;;;;;5041735;28;20114;-65
2024/01/14 01:12:28;;;;;;;11.43;2.00;;;3.30;99.90;;;;;;5045432;28;20029;-65
2024/01/14 01:14:54;;;;;;;11.27;1.33;;;3.30;99.90;;;;;;5042345;28;20520;-64
2024/01/14 01:17:20;;;;;;;19.30;2.28;;;3.40;99.90;;;;;;5039292;28;20120;-64
2024/01/14 01:19:45;;;;;;;9.40;1.30;;;3.40;99.90;;;;;;5043500;28;20040;-67
2024/01/14 01:22:11;;;;;;;5.38;1.20;;;3.30;99.90;;;;;;5042515;28;20036;-67
2024/01/14 01:24:38;;;;;;;14.40;1.20;;;3.40;99.90;;;;;;5042495;28;20038;-67
2024/01/14 01:27:04;;;;;;;7.32;0.82;;;3.40;99.90;;;;;;5036501;28;20061;-65
2024/01/14 01:29:30;;;;;;;10.52;1.70;;;3.40;99.90;;;;;;5040481;28;20044;-64
2024/01/14 01:31:56;;;;;;;10.27;1.52;;;3.50;99.90;;;;;;5041514;28;20402;-64
2024/01/14 01:34:21;;;;;;;7.53;1.10;;;3.50;99.90;;;;;;5042063;28;20080;-64
2024/01/14 01:36:47;;;;;;;12.80;1.43;;;3.50;99.90;;;;;;5041992;28;20233;-64
2024/01/14 01:39:14;;;;;;;12.33;0.87;;;3.50;99.90;;;;;;5040504;28;20443;-67
2024/01/14 01:41:39;;;;;;;6.35;1.73;;;3.50;99.90;;;;;;5044204;28;20056;-67
2024/01/14 01:44:05;;;;;;;7.93;1.20;;;3.60;99.90;;;;;;5041451;28;20037;-67
2024/01/14 01:46:32;;;;;;;8.93;1.80;;;3.60;99.90;;;;;;5041168;28;20345;-67
2024/01/14 01:48:58;;;;;;;;;;;3.60;99.90;;;;;;5041721;28;20660;-67
2024/01/14 01:51:24;;;;;;;15.63;1.77;;;3.60;99.90;;;;;;5040070;28;19924;-64
2024/01/14 01:53:50;;;;;;;15.57;1.52;;;3.60;99.90;;;;;;5042729;28;20037;-64
2024/01/14 01:56:17;;;;;;;11.35;1.73;;;3.60;99.90;;;;;;5040507;28;20039;-64
2024/01/14 01:58:43;;;;;;;7.68;1.02;;;3.60;99.90;;;;;;5041024;28;20128;-64
2024/01/14 02:01:09;;;;;;;15.68;1.50;;;3.70;99.90;;;;;;5043469;28;20107;-67
2024/01/14 02:03:36;;;;;;;8.93;1.27;;;3.60;99.90;;;;;;5039294;28;20114;-67
2024/01/14 02:06:02;;;;;;;9.40;1.70;;;3.70;99.90;;;;;;5038716;28;20037;-67
2024/01/14 02:08:28;;;;;;;;;;;3.60;99.90;;;;;;5037825;28;20520;-67
2024/01/14 02:10:54;;;;;;;9.60;1.05;;;3.60;99.90;;;;;;5041488;28;19917;-66
2024/01/14 02:13:20;;;;;;;11.23;0.77;;;3.60;99.90;;;;;;5040540;28;20033;-67
2024/01/14 02:15:46;;;;;;;12.20;1.05;;;3.60;99.90;;;;;;5040942;28;20075;-66
2024/01/14 02:18:11;;;;;;;6.40;0.87;;;3.60;99.90;;;;;;5040046;28;20061;-67
2024/01/14 02:20:37;;;;;;;12.13;1.37;;;3.60;99.90;;;;;;5042894;28;20033;-67
2024/01/14 02:23:06;;;;;;;12.93;2.13;;;3.60;99.90;;;;;;5041435;28;20041;-64
2024/01/14 02:25:32;;;;;;;11.52;1.38;;;3.60;99.90;;;;;;5041587;28;20041;-64
2024/01/14 02:27:57;;;;;;;11.98;1.10;;;3.60;99.90;;;;;;5039508;28;20125;-64
2024/01/14 02:30:24;;;;;;;9.02;1.35;;;3.70;99.90;;;;;;5041307;28;20039;-64
2024/01/14 02:32:50;;;;;;;11.02;0.93;;;3.70;99.90;;;;;;5054228;28;20029;-64
2024/01/14 02:35:16;;;;;;;;;;;3.70;99.90;;;;;;5039209;28;20040;-64
2024/01/14 02:37:44;;;;;;;12.63;2.20;;;3.70;99.90;;;;;;5040931;28;20004;-64
2024/01/14 02:40:13;;;;;;;13.20;1.52;;;3.70;99.90;;;;;;5039971;28;20378;-64
2024/01/14 02:42:39;;;;;;;13.18;0.98;;;3.70;99.90;;;;;;5040883;28;20037;-64
2024/01/14 02:45:07;;;;;;;16.90;1.30;;;3.80;99.90;;;;;;5042081;28;20036;-64
2024/01/14 02:47:32;;;;;;;5.32;0.98;;;3.80;99.90;;;;;;5036625;28;20044;-64
2024/01/14 02:49:58;;;;;;;13.77;1.70;;;3.70;99.90;;;;;;5039980;28;20037;-64
2024/01/14 02:52:23;;;;;;;15.17;1.13;;;3.80;99.90;;;;;;5038563;28;20398;-64
2024/01/14 02:54:49;;;;;;;11.97;1.70;;;3.80;99.90;;;;;;5039883;28;20239;-64
2024/01/14 02:57:15;;;;;;;19.40;1.70;;;3.80;99.90;;;;;;5039548;28;20497;-64
2024/01/14 02:59:40;;;;;;;11.70;1.60;;;3.80;99.90;;;;;;5040137;28;20037;-64
2024/01/14 03:02:06;;;;;;;9.70;1.00;;;3.80;99.90;;;;;;5056873;28;20408;-64
2024/01/14 03:04:31;;;;;;;14.30;2.17;;;3.80;99.90;;;;;;5043285;28;20065;-64
2024/01/14 03:06:57;;;;;;;8.43;2.43;;;3.80;99.90;;;;;;5039802;28;20113;-64
2024/01/14 03:09:23;;;;;;;8.10;1.42;;;3.80;99.90;;;;;;5041245;28;20087;-64
2024/01/14 03:11:49;;;;;;;18.30;2.08;;;3.70;99.90;;;;;;5038268;28;20042;-64
2024/01/14 03:14:14;;;;;;;14.43;1.40;;;3.70;99.90;;;;;;5038659;28;20052;-64
2024/01/14 03:16:40;;;;;;;9.90;1.00;;;3.70;99.90;;;;;;5039327;28;20644;-64
2024/01/14 03:19:06;;;;;;;12.37;0.87;;;3.60;99.90;;;;;;5040751;28;20116;-64
2024/01/14 03:21:32;;;;;;;11.73;1.77;;;3.60;99.90;;;;;;5048375;28;20028;-64
2024/01/14 03:23:57;;;;;;;13.57;1.55;;;3.50;99.90;;;;;;5038223;28;20162;-64
2024/01/14 03:26:23;;;;;;;21.23;1.80;;;3.50;99.90;;;;;;5045847;28;20410;-64
2024/01/14 03:28:49;;;;;;;13.27;0.93;;;3.40;99.90;;;;;;5052745;28;20119;-64
2024/01/14 03:31:15;;;;;;;6.80;1.00;;;3.40;99.90;;;;;;5036370;28;20493;-64
2024/01/14 03:33:42;;;;;;;14.55;1.83;;;3.30;99.90;;;;;;5046193;28;20115;-64
2024/01/14 03:36:08;;;;;;;16.90;2.47;;;3.30;99.90;;;;;;5042731;28;20150;-65
2024/01/14 03:38:34;;;;;;;9.13;1.17;;;3.20;99.90;;;;;;5039962;28;20033;-64
2024/01/14 03:40:59;;;;;;;10.87;2.13;;;3.20;99.90;;;;;;5046880;28;21361;-64
2024/01/14 03:43:25;;;;;;;11.23;0.80;;;3.10;99.90;;;;;;5044255;28;20299;-66
2024/01/14 03:45:50;;;;;;;17.97;1.20;;;3.00;99.90;;;;;;5047294;28;20033;-67
2024/01/14 03:48:16;;;;;;;10.13;1.00;;;3.00;99.90;;;;;;5047629;28;20075;-64
2024/01/14 03:50:42;;;;;;;13.00;2.40;;;2.90;99.90;;;;;;5045199;28;20155;-64
2024/01/14 03:53:08;;;;;;;8.20;0.90;;;2.90;99.90;;;;;;5045933;28;20120;-64
2024/01/14 03:55:33;;;;;;;12.57;1.83;;;2.90;99.90;;;;;;5043414;28;20390;-64
2024/01/14 03:57:59;;;;;;;14.80;1.33;;;2.90;99.90;;;;;;5036975;28;20390;-64
2024/01/14 04:00:24;;;;;;;20.77;1.70;;;2.90;99.90;;;;;;5037107;28;20038;-64
2024/01/14 04:02:50;;;;;;;12.03;1.27;;;2.90;99.90;;;;;;5032403;28;20034;-64
2024/01/14 04:05:16;;;;;;;13.90;1.60;;;2.90;99.90;;;;;;5042332;28;20041;-65
2024/01/14 04:07:41;;;;;;;13.60;1.40;;;2.80;99.90;;;;;;5043628;28;20060;-64
2024/01/14 04:10:07;;;;;;;17.17;1.20;;;2.80;99.90;;;;;;5048381;28;20452;-64
2024/01/14 04:12:33;;;;;;;9.35;1.20;;;2.70;99.90;;;;;;5046805;28;20090;-64
2024/01/14 04:14:58;;;;;;;9.93;0.73;;;2.70;99.90;;;;;;5047047;28;20045;-64
2024/01/14 04:17:24;;;;;;;10.90;1.47;;;2.70;99.90;;;;;;5047369;28;20091;-64
2024/01/14 04:19:50;;;;;;;11.50;1.17;;;2.70;99.90;;;;;;5042051;28;20498;-64
2024/01/14 04:22:15;;;;;;;18.00;1.90;;;2.70;99.90;;;;;;5047435;28;20460;-64
2024/01/14 04:24:41;;;;;;;8.47;1.80;;;2.70;99.90;;;;;;5048819;28;20045;-64
2024/01/14 04:27:07;;;;;;;19.48;1.85;;;2.70;99.90;;;;;;5045824;28;20037;-64
2024/01/14 04:29:33;;;;;;;14.57;1.17;;;2.70;99.90;;;;;;5042864;28;20068;-65
2024/01/14 04:32:00;;;;;;;10.55;0.98;;;2.80;99.90;;;;;;5045931;28;20314;-64
2024/01/14 04:34:25;;;;;;;;;;;2.80;99.90;;;;;;5048063;28;20060;-65
2024/01/14 04:36:51;;;;;;;17.50;1.40;;;2.90;99.90;;;;;;5045851;28;19925;-64
2024/01/14 04:39:16;;;;;;;11.80;1.20;;;2.90;99.90;;;;;;5040246;28;20128;-64
2024/01/14 04:41:42;;;;;;;7.77;1.20;;;3.00;99.90;;;;;;5031428;28;20191;-64
2024/01/14 04:44:08;;;;;;;12.63;1.43;;;3.00;99.90;;;;;;5045178;28;20036;-64
2024/01/14 04:46:33;;;;;;;13.57;1.43;;;3.10;99.90;;;;;;5045225;28;20036;-65
2024/01/14 04:48:59;;;;;;;7.53;1.00;;;3.10;99.90;;;;;;5042315;28;20041;-64
2024/01/14 04:51:24;;;;;;;7.50;0.70;;;3.10;99.90;;;;;;5044132;28;20215;-64
2024/01/14 04:53:50;;;;;;;6.07;0.50;;;3.10;99.90;;;;;;5043041;28;20425;-64
2024/01/14 04:56:16;;;;;;;14.70;1.63;;;3.00;99.90;;;;;;5051200;28;20052;-64
2024/01/14 04:58:41;;;;;;;8.27;0.70;;;3.00;99.90;;;;;;5048873;28;20112;-64
2024/01/14 05:01:07;;;;;;;6.03;0.47;;;3.00;99.90;;;;;;5046512;28;20040;-64
2024/01/14 05:03:32;;;;;;;6.73;1.13;;;3.00;99.90;;;;;;5041406;28;20044;-64
2024/01/14 05:05:58;;;;;;;11.07;0.83;;;3.00;99.90;;;;;;5050515;28;20047;-64
2024/01/14 05:08:24;;;;;;;4.87;1.20;;;3.10;99.90;;;;;;5041674;28;20045;-64
2024/01/14 05:10:49;;;;;;;6.20;1.40;;;3.00;99.90;;;;;;5066093;28;20045;-64
2024/01/14 05:13:15;;;;;;;11.13;1.37;;;3.10;99.90;;;;;;5049342;28;20474;-67
2024/01/14 05:15:40;;;;;;;6.63;0.70;;;3.10;99.90;;;;;;5049988;28;20048;-64
2024/01/14 05:18:06;;;;;;;7.70;1.00;;;3.20;99.90;;;;;;5049729;28;20493;-64
2024/01/14 05:20:32;;;;;;;9.57;1.20;;;3.20;99.90;;;;;;5048721;28;20043;-64
2024/01/14 05:22:57;;;;;;;5.30;0.87;;;3.10;99.90;;;;;;5045719;28;20065;-64
2024/01/14 05:25:23;;;;;;;4.87;0.63;;;3.20;99.90;;;;;;5043229;28;20046;-64
2024/01/14 05:27:48;;;;;;;9.10;0.80;;;3.20;99.90;;;;;;5045993;28;20166;-64
2024/01/14 05:30:14;;;;;;;10.13;0.63;;;3.30;99.90;;;;;;5050067;28;20041;-64
2024/01/14 05:32:40;;;;;;;5.07;0.45;;;3.30;99.90;;;;;;5049283;28;20048;-64
2024/01/14 05:35:05;;;;;;;7.60;0.60;;;3.30;99.90;;;;;;5049376;28;20123;-64
2024/01/14 05:37:31;;;;;;;7.30;1.43;;;3.30;99.90;;;;;;5041928;28;20057;-64
2024/01/14 05:39:57;;;;;;;8.70;1.17;;;3.30;99.90;;;;;;5043134;28;20087;-64
2024/01/14 05:42:23;;;;;;;10.65;1.00;;;3.30;99.90;;;;;;5045554;28;20045;-64
2024/01/14 05:44:48;;;;;;;8.60;0.67;;;3.30;99.90;;;;;;5044419;28;20037;-64
2024/01/14 05:47:14;;;;;;;7.00;0.90;;;3.30;99.90;;;;;;5048914;28;20040;-64
2024/01/14 05:49:39;;;;;;;10.63;0.73;;;3.30;99.90;;;;;;5046263;28;20134;-64
2024/01/14 05:52:05;;;;;;;7.67;1.07;;;3.30;99.90;;;;;;5050614;28;20048;-64
2024/01/14 05:54:31;;;;;;;10.40;1.25;;;3.30;99.90;;;;;;5046130;28;20470;-64
2024/01/14 05:56:57;;;;;;;10.15;0.65;;;3.30;99.90;;;;;;5044993;28;20047;-64
2024/01/14 05:59:23;;;;;;;12.15;0.98;;;3.30;99.90;;;;;;5047279;28;20034;-64
2024/01/14 06:01:49;;;;;;;10.45;1.48;;;3.30;99.90;;;;;;5046312;28;20394;-64
2024/01/14 06:04:15;;;;;;;12.60;1.43;;;3.20;99.90;;;;;;5045899;28;20405;-64
2024/01/14 06:06:40;;;;;;;11.57;0.77;;;3.20;99.90;;;;;;5040350;28;20038;-64
2024/01/14 06:09:06;;;;;;;9.37;1.90;;;3.20;99.90;;;;;;5042344;28;20082;-66
2024/01/14 06:11:31;;;;;;;18.63;2.37;;;3.20;99.90;;;;;;5048227;28;20048;-66
2024/01/14 06:13:57;;;;;;;7.67;0.63;;;3.20;99.90;;;;;;5047263;28;20041;-68
2024/01/14 06:16:24;;;;;;;11.30;1.67;;;3.20;99.90;;;;;;5047482;28;20270;-67
2024/01/14 06:18:50;;;;;;;17.50;2.05;;;3.20;99.90;;;;;;5046735;28;20056;-67
2024/01/14 06:21:16;;;;;;;10.73;1.40;;;3.30;99.90;;;;;;5047550;28;20041;-64
2024/01/14 06:23:41;;;;;;;10.23;1.97;;;3.30;99.90;;;;;;5049883;28;20549;-64
2024/01/14 06:26:07;;;;;;;17.67;1.57;;;3.40;99.90;;;;;;5045911;28;20036;-64
2024/01/14 06:28:33;;;;;;;13.77;2.37;;;3.40;99.90;;;;;;5053590;28;20090;-64
2024/01/14 06:30:58;;;;;;;12.10;1.60;;;3.40;99.90;;;;;;5045299;28;20622;-64
2024/01/14 06:33:24;;;;;;;8.57;1.23;;;3.40;99.90;;;;;;5053733;28;20498;-64
2024/01/14 06:35:49;;;;;;;17.73;1.67;;;3.40;99.90;;;;;;5044924;28;20054;-64
2024/01/14 06:38:15;;;;;;;13.77;1.87;;;3.50;99.90;;;;;;5035329;28;20399;-64
2024/01/14 06:40:40;;;;;;;7.87;1.53;;;3.40;99.90;;;;;;5044185;28;20033;-64
2024/01/14 06:43:08;;;;;;;10.90;1.33;;;3.40;99.90;;;;;;5039298;28;20083;-64
2024/01/14 06:45:33;;;;;;;9.27;1.75;;;3.50;99.90;;;;;;5042728;28;20047;-64
2024/01/14 06:47:59;;;;;;;14.53;1.63;;;3.40;99.90;;;;;;5047373;28;20798;-64
2024/01/14 06:50:25;;;;;;;14.23;1.60;;;3.40;99.90;;;;;;5047109;28;20049;-64
2024/01/14 06:52:50;;;;;;;5.65;1.00;;;3.40;99.90;;;;;;5046257;28;20493;-64
2024/01/14 06:55:16;;;;;;;15.20;1.93;;;3.40;99.90;;;;;;5048078;28;20528;-64
2024/01/14 06:57:41;;;;;;;8.07;1.83;;;3.40;99.90;;;;;;5046025;28;20401;-64
2024/01/14 07:00:09;;;;;;;13.40;1.83;;;3.40;99.90;;;;;;5030425;28;20037;-64
2024/01/14 07:02:35;;;;;;;16.38;1.58;;;3.40;99.90;;;;;;5043459;28;20547;-64
2024/01/14 07:05:00;;;;;;;14.48;2.03;;;3.40;99.90;;;;;;5049162;28;20091;-64
2024/01/14 07:07:27;;;;;;;10.77;1.42;;;3.40;99.90;;;;;;5042911;28;20060;-64
2024/01/14 07:09:53;;;;;;;9.70;0.77;;;3.40;99.90;;;;;;5049247;28;20609;-64
2024/01/14 07:12:18;;;;;;;6.60;0.60;;;3.40;99.90;;;;;;5042313;28;20120;-64
2024/01/14 07:14:44;;;;;;;7.17;0.63;;;3.40;99.90;;;;;;5046084;28;20110;-64
2024/01/14 07:17:10;;;;;;;11.50;1.40;;;3.40;99.90;;;;;;5046809;28;20044;-64
2024/01/14 07:19:35;;;;;;;10.30;0.60;;;3.40;99.90;;;;;;5046694;28;20048;-64
2024/01/14 07:22:06;;;;;;;8.33;1.47;;;3.40;99.90;;;;;;5047200;28;20558;-64
2024/01/14 07:24:32;;;;;;;14.30;1.05;;;3.40;99.90;;;;;;5047767;28;20086;-64
2024/01/14 07:26:58;;;;;;;7.20;1.20;;;3.30;99.90;;;;;;5045013;28;20056;-64
2024/01/14 07:29:24;;;;;;;9.95;0.98;;;3.30;99.90;;;;;;5045864;28;20051;-64
2024/01/14 07:31:49;;;;;;;8.30;0.80;;;3.40;99.90;;;;;;5049497;28;20045;-64
2024/01/14 07:34:15;;;;;;;7.07;0.63;;;3.40;99.90;;;;;;5043941;28;20040;-64
2024/01/14 07:36:41;;;;;;;8.30;1.00;;;3.40;99.90;;;;;;5046470;28;20036;-64
2024/01/14 07:39:06;;;;;;;12.13;1.23;;;3.40;99.90;;;;;;5043807;28;20029;-64
2024/01/14 07:41:32;;;;;;;5.23;1.40;;;3.40;99.90;;;;;;5045929;28;20033;-64
2024/01/14 07:43:57;;;;;;;7.13;1.03;;;3.40;99.90;;;;;;5042385;28;20041;-64
2024/01/14 07:46:23;;;;;;;8.43;1.30;;;3.40;99.90;;;;;;5052647;28;20098;-64
2024/01/14 07:48:49;;;;;;;10.23;0.83;;;3.40;99.90;;;;;;5041616;28;20528;-64
2024/01/14 07:51:14;;;;;;;2.37;1.00;;;3.40;99.90;;;;;;5042563;28;20080;-64
2024/01/14 07:53:40;;;;;;;8.97;1.33;;;3.40;99.90;;;;;;5041699;28;20883;-64
2024/01/14 07:56:06;;;;;;;14.27;1.37;;;3.40;99.90;;;;;;5047447;28;20045;-64
2024/01/14 07:58:31;;;;;;;6.05;1.40;;;3.50;99.90;;;;;;5035915;28;20567;-64
2024/01/14 08:00:57;;;;;;;11.20;1.80;;;3.50;99.90;;;;;;5039457;28;20056;-64
2024/01/14 08:03:22;;;;;;;4.93;0.87;;;3.50;99.90;;;;;;5042188;28;20037;-64
2024/01/14 08:05:48;;;;;;;5.97;1.20;;;3.50;99.90;;;;;;5049033;28;20040;-64
2024/01/14 08:08:14;;;;;;;10.13;1.83;;;3.60;99.90;;;;;;5034009;28;20405;-64
2024/01/14 08:10:39;;;;;;;8.53;1.10;;;3.60;99.90;;;;;;5040497;28;20653;-64
2024/01/14 08:13:05;;;;;;;7.30;1.97;;;3.60;99.90;;;;;;5048692;28;20121;-64
2024/01/14 08:15:31;;;;;;;10.02;2.53;;;3.60;99.90;;;;;;5048742;28;20045;-64
2024/01/14 08:17:56;;;;;;;11.25;2.30;;;3.60;99.90;;;;;;5063977;28;20549;-64
2024/01/14 08:20:22;;;;;;;7.57;2.83;;;3.70;99.90;;;;;;5042024;28;20409;-64
2024/01/14 08:22:48;;;;;;;16.25;3.88;;;3.70;99.90;;;;;;5038640;28;20072;-64
2024/01/14 08:25:14;;;;;;;8.10;3.17;;;3.70;99.90;;;;;;5042250;28;20053;-64
2024/01/14 08:27:40;;;;;;;10.73;3.03;;;3.70;99.90;;;;;;5040377;28;20037;-65
2024/01/14 08:30:07;;;;;;;11.57;3.38;;;3.70;99.90;;;;;;5032718;28;20068;-64
2024/01/14 08:32:32;;;;;;;14.88;3.95;;;3.70;99.90;;;;;;5050359;28;20105;-64
2024/01/14 08:34:58;;;;;;;14.23;4.40;;;3.80;99.90;;;;;;5045087;28;20053;-64
2024/01/14 08:37:24;;;;;;;9.52;4.35;;;3.80;99.90;;;;;;5047976;28;20044;-65
2024/01/14 08:39:50;;;;;;;12.15;4.32;;;3.70;99.90;;;;;;5048361;28;20350;-65
2024/01/14 08:42:19;;;;;;;16.90;5.75;;;3.80;99.90;;;;;;5049658;28;20493;-64
2024/01/14 08:44:45;;;;;;;19.08;6.45;;;3.80;99.90;;;;;;5048863;28;20037;-64
2024/01/14 08:47:10;;;;;;;14.77;6.47;;;3.80;99.90;;;;;;5042920;28;20506;-64
2024/01/14 08:49:36;;;;;;;12.87;5.80;;;3.80;99.90;;;;;;5043312;28;20120;-64
2024/01/14 08:52:02;;;;;;;15.20;5.67;;;3.80;99.90;;;;;;5047804;28;20116;-64
2024/01/14 08:54:31;;;;;;;15.90;6.67;;;3.90;99.90;;;;;;5049409;28;20489;-65
2024/01/14 08:56:57;;;;;;;24.45;7.32;;;3.80;99.90;;;;;;5043967;28;20283;-65
2024/01/14 08:59:22;;;;;;;15.23;6.33;;;3.90;99.90;;;;;;5052464;28;20437;-65
2024/01/14 09:01:48;;;;;;;17.13;7.83;;;3.90;99.90;;;;;;5049823;28;20060;-65
2024/01/14 09:04:14;;;;;;;24.47;7.97;;;3.90;99.90;;;;;;5052203;28;20029;-65
2024/01/14 09:06:40;;;;;;;15.95;8.23;;;3.90;99.90;;;;;;5066582;28;20458;-64
2024/01/14 09:09:06;;;;;;;14.50;7.07;;;4.00;99.90;;;;;;5050187;28;20129;-64
2024/01/14 09:11:33;;;;;;;23.00;9.25;;;4.00;99.90;;;;;;5042392;28;20452;-64
2024/01/14 09:13:58;;;;;;;17.85;9.95;;;4.00;99.90;;;;;;5050468;28;20038;-65
2024/01/14 09:16:24;;;;;;;17.80;9.15;;;4.00;99.90;;;;;;5052018;28;20051;-66
2024/01/14 09:18:50;;;;;;;19.77;9.57;;;4.00;99.90;;;;;;5051272;28;20501;-66
2024/01/14 09:21:16;;;;;;;21.13;9.83;;;4.00;99.90;;;;;;5050710;28;20500;-65
2024/01/14 09:23:41;;;;;;;18.63;9.38;;;4.00;99.90;;;;;;5051517;28;20282;-65
2024/01/14 09:26:07;;;;;;;20.27;7.80;;;4.00;99.90;;;;;;5051284;28;20455;-64
2024/01/14 09:28:34;;;;;;;16.60;9.17;;;4.00;99.90;;;;;;5051214;28;20048;-64
2024/01/14 09:31:00;;;;;;;16.85;7.20;;;4.00;99.90;;;;;;5051586;28;20105;-64
2024/01/14 09:33:26;;;;;;;15.95;7.68;;;4.00;99.90;;;;;;5051765;28;20049;-65
2024/01/14 09:35:51;;;;;;;23.07;9.67;;;4.00;99.90;;;;;;5051132;28;20081;-65
2024/01/14 09:38:17;;;;;;;18.17;7.47;;;4.00;99.90;;;;;;5050285;28;20041;-65
2024/01/14 09:40:43;;;;;;;20.87;9.10;;;4.00;99.90;;;;;;5050721;28;20440;-64
2024/01/14 09:43:13;;;;;;;15.70;8.10;;;3.90;99.90;;;;;;5051875;28;20033;-65
2024/01/14 09:45:40;;;;;;;19.40;8.27;;;4.00;99.90;;;;;;5051471;28;20041;-64
2024/01/14 09:48:08;;;;;;;17.05;9.90;;;4.00;99.90;;;;;;5051299;28;20131;-65
2024/01/14 09:50:35;;;;;;;22.90;12.52;;;3.90;99.90;;;;;;5050191;28;20045;-64
2024/01/14 09:53:04;;;;;;;20.50;9.23;;;3.90;99.90;;;;;;5056751;28;20048;-64
2024/01/14 09:55:30;;;;;;;14.00;8.45;;;3.90;99.90;;;;;;5055816;28;20134;-64
2024/01/14 09:58:00;;;;;;;21.92;10.95;;;3.90;99.90;;;;;;5050585;28;20087;-64
2024/01/14 10:00:26;;;;;;;16.58;10.27;;;3.90;99.90;;;;;;5048583;28;20048;-64
2024/01/14 10:02:52;;;;;;;19.80;9.30;;;3.90;99.90;;;;;;5048263;28;20076;-64
2024/01/14 10:05:18;;;;;;;17.43;9.30;;;3.90;99.90;;;;;;5047910;28;20513;-64
2024/01/14 10:07:46;;;;;;;17.70;10.00;;;3.90;99.90;;;;;;5043292;28;20504;-64
2024/01/14 10:10:11;;;;;;;20.48;12.45;;;3.90;99.90;;;;;;5051026;28;20045;-64
2024/01/14 10:12:37;;;;;;;21.10;12.77;;;3.90;99.90;;;;;;5043733;28;20087;-64
2024/01/14 10:15:03;;;;;;;24.60;13.03;;;3.90;99.90;;;;;;5050548;28;20055;-64
2024/01/14 10:17:29;;;;;;;28.33;16.42;;;3.90;99.90;;;;;;5038079;28;20073;-64
2024/01/14 10:19:58;;;;;;;34.42;17.13;;;3.90;99.90;;;;;;5049041;28;20076;-65
2024/01/14 10:22:27;;;;;;;31.58;16.48;;;3.90;99.90;;;;;;5049585;28;20112;-64
2024/01/14 10:24:55;;;;;;;32.35;17.08;;;3.90;99.90;;;;;;5043702;28;20506;-64
2024/01/14 10:27:22;;;;;;;29.13;16.88;;;3.90;99.90;;;;;;5030138;28;20425;-64
2024/01/14 10:29:49;;;;;;;;;;;4.00;99.90;;;;;;5030678;28;20116;-65
2024/01/14 10:32:15;;;;;;;33.13;16.90;;;4.00;99.90;;;;;;5030568;28;20282;-64
2024/01/14 10:34:41;;;;;;;36.95;18.08;;;3.90;99.90;;;;;;5031376;28;20060;-64
2024/01/14 10:37:07;;;;;;;31.95;17.23;;;4.00;99.90;;;;;;5047219;28;20052;-64
2024/01/14 10:39:34;;;;;;;43.70;20.30;;;4.00;99.90;;;;;;5049492;28;20112;-64
2024/01/14 10:42:00;;;;;;;35.35;18.65;;;4.00;99.90;;;;;;5047157;28;20037;-64
2024/01/14 10:44:26;;;;;;;35.35;20.02;;;4.00;99.90;;;;;;5046905;28;20055;-64
2024/01/14 10:46:53;;;;;;;35.15;19.58;;;4.00;99.90;;;;;;5044301;28;20029;-64
2024/01/14 10:49:26;;;;;;;39.10;20.83;;;4.00;99.90;;;;;;5044995;28;20045;-64
2024/01/14 10:52:07;;;;;;;40.90;20.58;;;4.00;99.90;;;;;;5036145;28;20033;-64
2024/01/14 10:54:47;;;;;;;37.65;19.52;;;4.00;99.90;;;;;;5039237;28;20037;-64
2024/01/14 10:57:32;;;;;;;43.10;21.02;;;4.00;99.90;;;;;;5043872;28;20091;-64
2024/01/14 11:00:06;;;;;;;32.95;17.55;;;3.90;99.90;;;;;;5037718;28;20112;-64
2024/01/14 11:02:43;;;;;;;38.92;21.02;;;4.00;99.90;;;;;;5038077;28;20040;-64
2024/01/14 11:05:10;;;;;;;30.13;18.38;;;4.00;99.90;;;;;;5043386;28;20060;-64
2024/01/14 11:07:36;;;;;;;38.53;20.88;;;4.00;99.90;;;;;;5044981;28;20519;-64
2024/01/14 11:10:07;;;;;;;37.55;20.83;;;4.10;99.90;;;;;;5047776;28;20037;-64
2024/01/14 11:13:00;;;;;;;44.25;21.80;;;4.10;99.90;;;;;;5042293;28;20095;-65
2024/01/14 11:15:51;;;;;;;35.95;19.00;;;4.10;99.90;;;;;;5042746;28;20044;-64
2024/01/14 11:18:26;;;;;;;34.03;19.33;;;4.20;99.90;;;;;;5045081;28;20517;-65
2024/01/14 11:21:13;;;;;;;30.58;17.15;;;4.20;99.90;;;;;;5046455;28;20402;-64
2024/01/14 11:23:40;;;;;;;37.00;19.17;;;4.10;99.90;;;;;;5046992;28;20045;-64
2024/01/14 11:28:44;;;;;;;32.45;18.98;;;4.20;99.90;;;;;;5099373;27;20324;-67
2024/01/14 11:31:10;;;;;;;29.02;16.08;;;4.20;99.90;;;;;;5093075;28;20460;-66
2024/01/14 11:33:42;;;;;;;29.30;16.10;;;4.10;99.90;;;;;;5091042;28;20040;-65
2024/01/14 11:36:08;;;;;;;28.60;16.17;;;4.10;99.90;;;;;;5101865;28;20036;-66
2024/01/14 11:38:35;;;;;;;;;;;4.10;99.90;;;;;;5099608;28;20126;-66
2024/01/14 11:41:28;;;;;;;33.77;15.60;;;4.10;99.90;;;;;;5104142;28;19930;-66
2024/01/14 11:44:01;;;;;;;27.42;16.65;;;4.10;99.90;;;;;;5101441;28;20060;-66
2024/01/14 11:46:40;;;;;;;23.23;14.40;;;4.20;99.90;;;;;;5102480;28;20036;-65
2024/01/14 11:49:10;;;;;;;23.77;14.48;;;4.20;99.90;;;;;;5101242;28;20039;-65
2024/01/14 11:51:45;;;;;;;27.15;15.73;;;4.20;99.90;;;;;;5106574;28;20032;-66
2024/01/14 11:54:12;;;;;;;31.45;16.67;;;4.20;99.90;;;;;;5104883;28;20035;-65
2024/01/14 11:56:38;;;;;;;;;;;4.20;99.90;;;;;;5104712;28;20063;-65
2024/01/14 11:59:07;;;;;;;33.35;17.50;;;4.20;99.90;;;;;;5099309;28;19924;-65
2024/01/14 12:01:34;;;;;;;28.88;17.05;;;4.20;99.90;;;;;;5106365;28;20054;-65
2024/01/14 12:04:08;;;;;;;35.28;18.02;;;4.20;99.90;;;;;;5105325;28;20039;-66
2024/01/14 12:06:44;;;;;;;33.35;17.90;;;4.10;99.90;;;;;;5089088;28;20119;-65
2024/01/14 12:09:13;;;;;;;33.55;18.80;;;4.10;99.90;;;;;;5094845;28;20039;-65
2024/01/14 12:11:39;;;;;;;31.83;18.65;;;4.10;99.90;;;;;;5090790;28;20495;-67
2024/01/14 12:14:05;;;;;;;30.63;17.45;;;4.10;99.90;;;;;;5090259;28;20092;-67
2024/01/14 12:16:31;;;;;;;28.53;17.20;;;4.10;99.90;;;;;;5093019;28;20032;-67
2024/01/14 12:18:57;;;;;;;30.70;18.08;;;4.10;99.90;;;;;;5095207;28;20266;-66
2024/01/14 12:21:23;;;;;;;35.17;18.63;;;4.10;99.90;;;;;;5089115;28;20052;-66
2024/01/14 12:23:50;;;;;;;37.72;20.48;;;4.10;99.90;;;;;;5091648;28;20109;-67
2024/01/14 12:26:16;;;;;;;31.38;20.80;;;4.10;99.90;;;;;;5093113;28;20043;-67
2024/01/14 12:28:41;;;;;;;36.53;20.20;;;4.00;99.90;;;;;;5090819;28;20040;-67
2024/01/14 12:31:07;;;;;;;37.00;21.77;;;4.00;99.90;;;;;;5100711;28;20357;-67
2024/01/14 12:33:33;;;;;;;37.90;20.65;;;4.00;99.90;;;;;;5089684;28;20082;-67
2024/01/14 12:36:00;;;;;;;31.30;18.83;;;4.00;99.90;;;;;;5091988;28;20044;-66
2024/01/14 12:38:26;;;;;;;36.55;21.85;;;4.00;99.90;;;;;;5083530;28;20067;-67
2024/01/14 12:40:53;;;;;;;37.80;21.92;;;4.00;99.90;;;;;;5078793;28;20044;-66
2024/01/14 12:43:19;;;;;;;45.85;21.95;;;4.00;99.90;;;;;;5076072;28;20040;-67
2024/01/14 12:45:49;;;;;;;40.53;22.40;;;4.00;99.90;;;;;;5079882;28;20043;-66
2024/01/14 12:48:22;;;;;;;37.85;21.15;;;4.00;99.90;;;;;;5085461;28;20302;-67
2024/01/14 12:50:55;;;;;;;39.35;23.20;;;4.00;99.90;;;;;;5091558;28;20037;-67